Time;durP1;ratioP1;P1;durP2;ratioP2;P2;SDS_P1;SDS_P2;PMS_P1;PMS_P2;Temp;Humidity;BMP_temperature;BMP_pressure;BME280_temperature;BME280_humidity;BME280_pressure;Samples;Min_cycle;Max_cycle;Signal;HPM_P1;HPM_P2
2022/07/14 00:00:27;;;;;;;1999.90;999.90;;;12.50;99.90;;;;;;5051267;28;20036;-75
2022/07/14 00:02:53;;;;;;;1999.90;999.90;;;12.40;99.90;;;;;;5065838;28;21241;-75
2022/07/14 00:05:18;;;;;;;1999.90;999.90;;;12.40;99.90;;;;;;5038102;28;20039;-75
2022/07/14 00:07:44;;;;;;;1999.90;999.90;;;12.30;99.90;;;;;;5077190;28;20047;-75
2022/07/14 00:10:09;;;;;;;1999.90;999.90;;;12.30;99.90;;;;;;5030033;28;20501;-75
2022/07/14 00:12:35;;;;;;;1999.90;999.90;;;12.30;99.90;;;;;;5048502;28;20032;-75
2022/07/14 00:15:01;;;;;;;1999.90;999.90;;;12.20;99.90;;;;;;5049897;28;20048;-75
2022/07/14 00:17:27;;;;;;;1999.90;999.90;;;12.10;99.90;;;;;;5051839;28;20045;-75
2022/07/14 00:19:52;;;;;;;1999.90;999.90;;;12.00;99.90;;;;;;5063904;28;20044;-75
2022/07/14 00:22:18;;;;;;;1999.90;999.90;;;12.00;99.90;;;;;;5062686;28;20052;-75
2022/07/14 00:24:44;;;;;;;1999.90;999.90;;;12.00;99.90;;;;;;5085935;28;20453;-74
2022/07/14 00:27:10;;;;;;;1999.90;999.90;;;11.90;99.90;;;;;;5032227;28;20059;-75
2022/07/14 00:29:36;;;;;;;1999.90;999.90;;;11.90;99.90;;;;;;5065330;28;20533;-75
2022/07/14 00:32:03;;;;;;;1999.90;999.90;;;11.90;99.90;;;;;;5068168;28;20486;-75
2022/07/14 00:34:28;;;;;;;1999.90;999.90;;;11.80;99.90;;;;;;5033818;28;20037;-75
2022/07/14 00:36:54;;;;;;;1999.90;999.90;;;11.80;99.90;;;;;;5054121;28;20044;-75
2022/07/14 00:39:20;;;;;;;1999.90;999.90;;;11.80;99.90;;;;;;5050296;28;20098;-75
2022/07/14 00:41:45;;;;;;;1999.90;999.90;;;11.80;99.90;;;;;;5067531;28;20581;-75
2022/07/14 00:44:11;;;;;;;1999.90;999.90;;;11.80;99.90;;;;;;5036288;28;20052;-75
2022/07/14 00:46:38;;;;;;;1999.90;999.90;;;11.80;99.90;;;;;;5049940;28;20072;-75
2022/07/14 00:49:04;;;;;;;1999.90;999.90;;;11.80;99.90;;;;;;5035432;28;20053;-75
2022/07/14 00:51:30;;;;;;;1999.90;999.90;;;11.70;99.90;;;;;;5047639;28;20056;-75
2022/07/14 00:53:55;;;;;;;1999.90;999.90;;;11.70;99.90;;;;;;5053397;28;20469;-75
2022/07/14 00:56:21;;;;;;;1999.90;999.90;;;11.70;99.90;;;;;;5069288;28;20040;-75
2022/07/14 00:58:47;;;;;;;1999.90;999.90;;;11.80;99.90;;;;;;5031224;28;20485;-75
2022/07/14 01:01:12;;;;;;;1999.90;999.90;;;11.80;99.90;;;;;;5049950;28;20094;-75
2022/07/14 01:03:38;;;;;;;1999.90;999.90;;;11.80;99.90;;;;;;5063040;28;20494;-75
2022/07/14 01:06:04;;;;;;;1999.90;999.90;;;11.80;99.90;;;;;;5036602;28;20044;-75
2022/07/14 01:08:30;;;;;;;1999.90;999.90;;;11.80;99.90;;;;;;5021486;28;20482;-75
2022/07/14 01:10:55;;;;;;;1999.90;999.90;;;11.80;99.90;;;;;;5047662;28;20122;-75
2022/07/14 01:13:21;;;;;;;1999.90;999.90;;;11.80;99.90;;;;;;5052907;28;20043;-75
2022/07/14 01:15:47;;;;;;;1999.90;999.90;;;11.70;99.90;;;;;;5051573;28;20499;-75
2022/07/14 01:18:13;;;;;;;1999.90;999.90;;;11.70;99.90;;;;;;5068774;28;20036;-75
2022/07/14 01:20:39;;;;;;;1999.90;999.90;;;11.60;99.90;;;;;;5039740;28;20073;-75
2022/07/14 01:23:05;;;;;;;1999.90;999.90;;;11.60;99.90;;;;;;5031327;28;20044;-75
2022/07/14 01:25:32;;;;;;;1999.90;999.90;;;11.50;99.90;;;;;;5045801;28;20051;-75
2022/07/14 01:27:58;;;;;;;1999.90;999.90;;;11.50;99.90;;;;;;5050342;28;20129;-75
2022/07/14 01:30:23;;;;;;;1999.90;999.90;;;11.40;99.90;;;;;;5033986;28;20095;-75
2022/07/14 01:32:49;;;;;;;1999.90;999.90;;;11.40;99.90;;;;;;5063572;28;20043;-75
2022/07/14 01:35:15;;;;;;;1999.90;999.90;;;11.40;99.90;;;;;;5048193;28;20040;-75
2022/07/14 01:37:40;;;;;;;1999.90;999.90;;;11.30;99.90;;;;;;5045415;28;20040;-75
2022/07/14 01:40:07;;;;;;;1999.90;999.90;;;11.30;99.90;;;;;;5049175;28;20517;-75
2022/07/14 01:42:33;;;;;;;1999.90;999.90;;;11.20;99.90;;;;;;5049589;28;20044;-75
2022/07/14 01:44:58;;;;;;;1999.90;999.90;;;11.20;99.90;;;;;;5067956;28;20059;-75
2022/07/14 01:47:25;;;;;;;1999.90;999.90;;;11.10;99.90;;;;;;5046857;28;20461;-75
2022/07/14 01:49:50;;;;;;;1999.90;999.90;;;11.10;99.90;;;;;;5030565;28;20049;-75
2022/07/14 01:52:16;;;;;;;1999.90;999.90;;;11.10;99.90;;;;;;5043702;28;20050;-75
2022/07/14 01:54:42;;;;;;;1999.90;999.90;;;11.00;99.90;;;;;;5048155;28;20048;-75
2022/07/14 01:57:08;;;;;;;1999.90;999.90;;;11.00;99.90;;;;;;5031963;28;20036;-75
2022/07/14 01:59:34;;;;;;;1999.90;999.90;;;10.90;99.90;;;;;;5050475;28;20170;-75
2022/07/14 02:01:59;;;;;;;1999.90;999.90;;;10.80;99.90;;;;;;5048384;28;20116;-75
2022/07/14 02:04:25;;;;;;;1999.90;999.90;;;10.80;99.90;;;;;;5074764;28;20490;-75
2022/07/14 02:06:54;;;;;;;1999.90;999.90;;;10.80;99.90;;;;;;5080287;28;20348;-75
2022/07/14 02:09:20;;;;;;;1999.90;999.90;;;10.70;99.90;;;;;;5067124;28;20440;-75
2022/07/14 02:14:32;;;;;;;1999.90;999.90;;;10.60;99.90;;;;;;5049881;28;20064;-75
2022/07/14 02:16:58;;;;;;;1999.90;999.90;;;10.60;99.90;;;;;;5063556;28;20414;-75
2022/07/14 02:19:24;;;;;;;1999.90;999.90;;;10.60;99.90;;;;;;5049869;28;20032;-75
2022/07/14 02:21:51;;;;;;;1999.90;999.90;;;10.50;99.90;;;;;;5029895;28;20046;-75
2022/07/14 02:24:17;;;;;;;1999.90;999.90;;;10.50;99.90;;;;;;5033225;28;20043;-76
2022/07/14 02:26:44;;;;;;;1999.90;999.90;;;10.40;99.90;;;;;;5066084;28;20089;-75
2022/07/14 02:29:10;;;;;;;1999.90;999.90;;;10.40;99.90;;;;;;5078204;28;20048;-76
2022/07/14 02:31:36;;;;;;;1999.90;999.90;;;10.40;99.90;;;;;;5051834;28;20151;-75
2022/07/14 02:34:02;;;;;;;1999.90;999.90;;;10.30;99.90;;;;;;5050608;28;20462;-75
2022/07/14 02:36:29;;;;;;;1999.90;999.90;;;10.30;99.90;;;;;;5064173;28;20113;-75
2022/07/14 02:38:55;;;;;;;1999.90;999.90;;;10.30;99.90;;;;;;5051870;28;20115;-75
2022/07/14 02:41:21;;;;;;;1999.90;999.90;;;10.30;99.90;;;;;;5069480;28;20109;-75
2022/07/14 02:43:47;;;;;;;1999.90;999.90;;;10.30;99.90;;;;;;5057076;28;20047;-76
2022/07/14 02:46:13;;;;;;;1999.90;999.90;;;10.30;99.90;;;;;;5031405;28;20041;-75
2022/07/14 02:48:38;;;;;;;1999.90;999.90;;;10.30;99.90;;;;;;5068366;28;20040;-75
2022/07/14 02:51:06;;;;;;;1999.90;999.90;;;10.20;99.90;;;;;;5048469;28;20546;-75
2022/07/14 02:53:34;;;;;;;1999.90;999.90;;;10.20;99.90;;;;;;5069368;28;20079;-75
2022/07/14 02:56:00;;;;;;;1999.90;999.90;;;10.10;99.90;;;;;;5051906;28;20048;-76
2022/07/14 02:58:26;;;;;;;1999.90;999.90;;;10.10;99.90;;;;;;5068220;28;20041;-75
2022/07/14 03:00:52;;;;;;;1999.90;999.90;;;10.10;99.90;;;;;;5052909;28;20383;-76
2022/07/14 03:03:18;;;;;;;1999.90;999.90;;;10.10;99.90;;;;;;5066390;28;20068;-75
2022/07/14 03:05:44;;;;;;;1999.90;999.90;;;10.00;99.90;;;;;;5072476;28;20036;-75
2022/07/14 03:08:10;;;;;;;1999.90;999.90;;;10.00;99.90;;;;;;5049552;28;20044;-75
2022/07/14 03:10:36;;;;;;;1999.90;999.90;;;9.90;99.90;;;;;;5082314;28;20044;-75
2022/07/14 03:13:03;;;;;;;1999.90;999.90;;;9.90;99.90;;;;;;5051513;28;20044;-76
2022/07/14 03:15:28;;;;;;;1999.90;999.90;;;9.90;99.90;;;;;;5047375;28;20063;-75
2022/07/14 03:17:54;;;;;;;1999.90;999.90;;;9.90;99.90;;;;;;5068092;28;20036;-75
2022/07/14 03:20:20;;;;;;;1999.90;999.90;;;9.90;99.90;;;;;;5064411;28;20037;-75
2022/07/14 03:22:45;;;;;;;1999.90;999.90;;;9.80;99.90;;;;;;5066677;28;20222;-76
2022/07/14 03:25:11;;;;;;;1999.90;999.90;;;9.80;99.90;;;;;;5084854;28;20037;-76
2022/07/14 03:27:40;;;;;;;1999.90;999.90;;;9.80;99.90;;;;;;5051409;28;20052;-75
2022/07/14 03:30:06;;;;;;;1999.90;999.90;;;9.70;99.90;;;;;;5055121;28;20044;-75
2022/07/14 03:32:32;;;;;;;1999.90;999.90;;;9.70;99.90;;;;;;5036423;28;20392;-75
2022/07/14 03:34:59;;;;;;;1999.90;999.90;;;9.70;99.90;;;;;;5066172;28;20301;-75
2022/07/14 03:37:25;;;;;;;1999.90;999.90;;;9.60;99.90;;;;;;5052929;28;20059;-75
2022/07/14 03:39:51;;;;;;;1999.90;999.90;;;9.60;99.90;;;;;;5082844;28;20040;-75
2022/07/14 03:42:17;;;;;;;1999.90;999.90;;;9.60;99.90;;;;;;5053259;28;20044;-76
2022/07/14 03:44:44;;;;;;;1999.90;999.90;;;9.60;99.90;;;;;;5084494;28;20051;-75
2022/07/14 03:47:10;;;;;;;1999.90;999.90;;;9.60;99.90;;;;;;5070516;28;20055;-75
2022/07/14 03:49:36;;;;;;;1999.90;999.90;;;9.50;99.90;;;;;;5067456;28;20040;-75
2022/07/14 03:52:02;;;;;;;1999.90;999.90;;;9.50;99.90;;;;;;5085613;28;20604;-76
2022/07/14 03:54:27;;;;;;;1999.90;999.90;;;9.50;99.90;;;;;;5067470;28;20056;-75
2022/07/14 03:56:53;;;;;;;1999.90;999.90;;;9.40;99.90;;;;;;5068768;28;20111;-75
2022/07/14 03:59:19;;;;;;;1999.90;999.90;;;9.50;99.90;;;;;;5051680;28;20568;-76
2022/07/14 04:01:44;;;;;;;1999.90;999.90;;;9.40;99.90;;;;;;5068179;28;20041;-76
2022/07/14 04:04:10;;;;;;;1999.90;999.90;;;9.40;99.90;;;;;;5078011;28;20479;-75
2022/07/14 04:06:36;;;;;;;1999.90;999.90;;;9.40;99.90;;;;;;5050207;28;20067;-75
2022/07/14 04:09:02;;;;;;;1999.90;999.90;;;9.40;99.90;;;;;;5046982;28;20091;-75
2022/07/14 04:11:27;;;;;;;1999.90;999.90;;;9.40;99.90;;;;;;5068159;28;20030;-74
2022/07/14 04:13:53;;;;;;;1999.90;999.90;;;9.50;99.90;;;;;;5046984;28;20040;-76
2022/07/14 04:16:19;;;;;;;1999.90;999.90;;;9.50;99.90;;;;;;5049320;28;20055;-76
2022/07/14 04:18:45;;;;;;;1999.90;999.90;;;9.50;99.90;;;;;;5034392;28;20102;-75
2022/07/14 04:21:10;;;;;;;1999.90;999.90;;;9.50;99.90;;;;;;5068126;28;20498;-75
2022/07/14 04:23:36;;;;;;;1999.90;999.90;;;9.60;99.90;;;;;;5069726;28;20108;-76
2022/07/14 04:26:03;;;;;;;1999.90;999.90;;;9.60;99.90;;;;;;5048989;28;20049;-76
2022/07/14 04:28:30;;;;;;;1999.90;999.90;;;9.80;99.90;;;;;;5035442;28;20385;-76
2022/07/14 04:30:56;;;;;;;1999.90;999.90;;;9.90;99.90;;;;;;5036229;28;20044;-76
2022/07/14 04:33:22;;;;;;;1999.90;999.90;;;9.90;99.90;;;;;;5037227;28;20048;-76
2022/07/14 04:35:48;;;;;;;1999.90;999.90;;;10.00;99.90;;;;;;5077819;28;20044;-76
2022/07/14 04:38:14;;;;;;;1999.90;999.90;;;10.10;99.90;;;;;;5034407;28;20040;-76
2022/07/14 04:40:47;;;;;;;1999.90;999.90;;;10.20;99.90;;;;;;5050146;28;20447;-75
2022/07/14 04:43:13;;;;;;;1999.90;999.90;;;10.20;99.90;;;;;;5033241;28;20178;-76
2022/07/14 04:45:38;;;;;;;1999.90;999.90;;;10.30;99.90;;;;;;5069110;28;20494;-75
2022/07/14 04:48:04;;;;;;;1999.90;999.90;;;10.40;99.90;;;;;;5045276;28;20047;-75
2022/07/14 04:53:14;;;;;;;1999.90;999.90;;;10.60;99.90;;;;;;5066831;28;20508;-75
2022/07/14 04:55:40;;;;;;;1999.90;999.90;;;10.80;99.90;;;;;;5032028;28;20048;-75
2022/07/14 04:58:05;;;;;;;1999.90;999.90;;;10.90;99.90;;;;;;5044793;28;20040;-75
2022/07/14 05:00:31;;;;;;;1999.90;999.90;;;11.00;99.90;;;;;;5049436;28;20052;-76
2022/07/14 05:02:56;;;;;;;1999.90;999.90;;;11.20;99.90;;;;;;5046348;28;20033;-76
2022/07/14 05:05:22;;;;;;;1999.90;999.90;;;11.40;99.90;;;;;;5051239;28;20040;-76
2022/07/14 05:07:48;;;;;;;1999.90;999.90;;;11.60;99.90;;;;;;5061363;28;20623;-76
2022/07/14 05:10:14;;;;;;;1999.90;999.90;;;11.80;99.90;;;;;;5050960;28;20441;-76
2022/07/14 05:12:40;;;;;;;1999.90;999.90;;;12.00;99.90;;;;;;5061284;28;20049;-76
2022/07/14 05:15:06;;;;;;;1999.90;999.90;;;12.10;99.90;;;;;;5050192;28;20569;-76
2022/07/14 05:17:32;;;;;;;1999.90;999.90;;;12.30;99.90;;;;;;5045786;28;20044;-76
2022/07/14 05:19:57;;;;;;;1999.90;999.90;;;12.40;99.90;;;;;;5050372;28;20043;-76
2022/07/14 05:22:24;;;;;;;1999.90;999.90;;;12.60;99.90;;;;;;5062757;28;20047;-76
2022/07/14 05:24:50;;;;;;;1999.90;999.90;;;12.70;99.90;;;;;;5066757;28;20458;-76
2022/07/14 05:27:16;;;;;;;1999.90;999.90;;;12.90;99.90;;;;;;5061343;28;20058;-76
2022/07/14 05:29:41;;;;;;;1999.90;999.90;;;13.00;99.90;;;;;;5063241;28;20107;-76
2022/07/14 05:32:07;;;;;;;1999.90;999.90;;;13.20;99.90;;;;;;5067311;28;20090;-76
2022/07/14 05:34:39;;;;;;;1999.90;999.90;;;13.30;99.90;;;;;;5049195;28;20531;-76
2022/07/14 05:37:05;;;;;;;1999.90;999.90;;;13.50;99.90;;;;;;5065768;28;20364;-76
2022/07/14 05:39:30;;;;;;;1999.90;999.90;;;13.60;99.90;;;;;;5067265;28;20051;-75
2022/07/14 05:41:56;;;;;;;1999.90;999.90;;;13.80;99.90;;;;;;5029130;28;20490;-75
2022/07/14 05:44:22;;;;;;;1999.90;999.90;;;13.90;99.90;;;;;;5043953;28;20112;-76
2022/07/14 05:46:47;;;;;;;1999.90;999.90;;;14.00;99.90;;;;;;5047594;28;20048;-75
2022/07/14 05:49:13;;;;;;;1999.90;999.90;;;14.20;99.90;;;;;;5026707;28;20099;-76
2022/07/14 05:51:38;;;;;;;1999.90;999.90;;;14.40;99.90;;;;;;5042384;28;20498;-76
2022/07/14 05:54:04;;;;;;;1999.90;999.90;;;14.60;99.90;;;;;;5065418;28;20044;-76
2022/07/14 05:56:30;;;;;;;1999.90;999.90;;;14.70;99.90;;;;;;5053037;28;20544;-76
2022/07/14 05:58:55;;;;;;;1999.90;999.90;;;14.90;99.90;;;;;;5045057;28;20132;-75
2022/07/14 06:01:21;;;;;;;1999.90;999.90;;;15.10;99.90;;;;;;5046806;28;20494;-75
2022/07/14 06:03:56;;;;;;;1999.90;999.90;;;15.20;99.90;;;;;;5046094;28;20042;-76
2022/07/14 06:06:22;;;;;;;1999.90;999.90;;;15.30;99.90;;;;;;5046628;28;20423;-75
2022/07/14 06:08:49;;;;;;;1999.90;999.90;;;15.40;99.90;;;;;;5048005;28;20059;-75
2022/07/14 06:11:15;;;;;;;1999.90;999.90;;;15.70;99.90;;;;;;5029103;28;20040;-76
2022/07/14 06:13:41;;;;;;;1999.90;999.90;;;16.40;99.90;;;;;;5031113;28;20055;-76
2022/07/14 06:16:08;;;;;;;1999.90;999.90;;;17.70;99.90;;;;;;5046425;28;20067;-76
2022/07/14 06:18:34;;;;;;;1999.90;999.90;;;18.70;99.90;;;;;;5044992;28;20120;-76
2022/07/14 06:21:00;;;;;;;1999.90;999.90;;;19.10;99.90;;;;;;5038801;28;20119;-75
2022/07/14 06:23:26;;;;;;;1999.90;999.90;;;19.90;99.90;;;;;;5047243;28;20071;-76
2022/07/14 06:25:52;;;;;;;1999.90;999.90;;;20.70;99.90;;;;;;5050411;28;20048;-76
2022/07/14 06:28:18;;;;;;;1999.90;999.90;;;21.40;99.90;;;;;;5043275;28;20044;-76
2022/07/14 06:30:44;;;;;;;1999.90;999.90;;;22.00;99.90;;;;;;5031953;28;20044;-76
2022/07/14 06:33:10;;;;;;;1999.90;999.90;;;22.60;99.90;;;;;;5045755;28;20033;-76
2022/07/14 06:35:40;;;;;;;1999.90;999.90;;;23.10;99.90;;;;;;5028512;28;20855;-76
2022/07/14 06:38:06;;;;;;;1999.90;999.90;;;23.60;99.90;;;;;;5043784;28;20037;-76
2022/07/14 06:40:32;;;;;;;1999.90;999.90;;;23.80;99.90;;;;;;5027697;28;20045;-76
2022/07/14 06:42:57;;;;;;;1999.90;999.90;;;24.00;99.90;;;;;;5032788;28;20118;-76
2022/07/14 06:45:23;;;;;;;1999.90;999.90;;;23.90;99.90;;;;;;5042988;28;20545;-76
2022/07/14 06:47:49;;;;;;;1999.90;999.90;;;23.90;99.90;;;;;;5045806;28;20052;-76
2022/07/14 06:50:14;;;;;;;1999.90;999.90;;;23.90;99.90;;;;;;5045067;28;20556;-76
2022/07/14 06:52:40;;;;;;;1999.90;999.90;;;23.80;99.90;;;;;;5046644;28;20095;-76
2022/07/14 06:55:07;;;;;;;1999.90;999.90;;;23.90;99.90;;;;;;5044149;28;20045;-76
2022/07/14 06:57:32;;;;;;;1999.90;999.90;;;23.80;99.90;;;;;;5046247;28;20473;-76
2022/07/14 06:59:58;;;;;;;1999.90;999.90;;;23.90;99.90;;;;;;5044864;28;20157;-77
2022/07/14 07:02:23;;;;;;;1999.90;999.90;;;23.70;99.60;;;;;;5028685;28;20025;-77
2022/07/14 07:06:43;;;;;;;1999.90;999.90;;;23.60;98.20;;;;;;5045927;28;20495;-76
2022/07/14 07:07:36;;;;;;;1999.90;999.90;;;23.50;98.80;;;;;;5054685;28;20388;-76
2022/07/14 07:10:03;;;;;;;1999.90;999.90;;;23.80;98.30;;;;;;5053869;28;20045;-76
2022/07/14 07:12:28;;;;;;;1999.90;999.90;;;24.00;98.90;;;;;;5041947;28;20045;-76
2022/07/14 07:14:54;;;;;;;1999.90;999.90;;;24.10;99.90;;;;;;5046396;28;20045;-76
2022/07/14 07:17:20;;;;;;;1999.90;999.90;;;24.30;99.00;;;;;;5026715;28;20087;-76
2022/07/14 07:19:46;;;;;;;1999.90;999.90;;;23.70;97.70;;;;;;5062925;28;20099;-76
2022/07/14 07:22:12;;;;;;;1999.90;999.90;;;22.70;98.50;;;;;;5038073;28;20073;-76
2022/07/14 07:24:37;;;;;;;1999.90;999.90;;;22.10;99.30;;;;;;5049221;28;20041;-76
2022/07/14 07:27:03;;;;;;;1999.90;999.90;;;21.20;99.20;;;;;;5056475;28;20223;-76
2022/07/14 07:29:29;;;;;;;1999.90;999.90;;;20.80;99.90;;;;;;5049113;28;20064;-76
2022/07/14 07:31:54;;;;;;;1999.90;999.90;;;21.20;99.90;;;;;;5042297;28;20028;-76
2022/07/14 07:34:20;;;;;;;1999.90;999.90;;;21.80;99.90;;;;;;5045923;28;20036;-76
2022/07/14 07:36:46;;;;;;;1999.90;999.90;;;22.00;99.90;;;;;;5035953;28;20453;-76
2022/07/14 07:39:11;;;;;;;1999.90;999.90;;;21.50;99.50;;;;;;5043869;28;20403;-77
2022/07/14 07:41:37;;;;;;;1999.90;999.90;;;20.90;99.90;;;;;;5029155;28;20449;-76
2022/07/14 07:44:03;;;;;;;1999.90;999.90;;;20.60;99.90;;;;;;5043523;28;20386;-76
2022/07/14 07:46:29;;;;;;;1999.90;999.90;;;20.90;99.90;;;;;;5049202;28;20045;-76
2022/07/14 07:48:54;;;;;;;1999.90;999.90;;;21.10;99.90;;;;;;5026067;28;20083;-76
2022/07/14 07:51:20;;;;;;;1999.90;999.90;;;21.30;99.70;;;;;;5045472;28;20147;-76
2022/07/14 07:53:46;;;;;;;1999.90;999.90;;;21.40;99.90;;;;;;5029463;28;20052;-75
2022/07/14 07:56:11;;;;;;;1999.90;999.90;;;21.80;99.90;;;;;;5043541;28;20040;-77
2022/07/14 07:58:37;;;;;;;1999.90;999.90;;;22.30;99.50;;;;;;5043080;28;20029;-77
2022/07/14 08:01:03;;;;;;;1999.90;999.90;;;22.70;98.80;;;;;;5045306;28;20515;-76
2022/07/14 08:03:29;;;;;;;1999.90;999.90;;;22.80;98.70;;;;;;5036027;28;21550;-76
2022/07/14 08:05:55;;;;;;;1999.90;999.90;;;22.80;98.10;;;;;;5032627;28;20403;-76
2022/07/14 08:08:21;;;;;;;1999.90;999.90;;;22.70;97.20;;;;;;5052392;28;20471;-76
2022/07/14 08:10:47;;;;;;;1999.90;999.90;;;22.50;98.20;;;;;;5043913;28;20042;-76
2022/07/14 08:13:13;;;;;;;1999.90;999.90;;;22.30;98.30;;;;;;5042538;28;20088;-76
2022/07/14 08:15:39;;;;;;;1999.90;999.90;;;22.20;95.30;;;;;;5030015;28;20533;-76
2022/07/14 08:18:05;;;;;;;1999.90;999.90;;;22.60;97.10;;;;;;5042751;28;20525;-76
2022/07/14 08:20:30;;;;;;;1999.90;999.90;;;22.80;96.20;;;;;;5046905;28;20072;-76
2022/07/14 08:22:57;;;;;;;1999.90;999.90;;;22.90;96.30;;;;;;5048740;28;20118;-76
2022/07/14 08:25:22;;;;;;;1999.90;999.90;;;22.70;95.40;;;;;;5039226;28;20048;-77
2022/07/14 08:27:48;;;;;;;1999.90;999.90;;;22.80;96.50;;;;;;5039841;28;20032;-76
2022/07/14 08:30:14;;;;;;;1999.90;999.90;;;22.80;95.70;;;;;;5041539;28;20032;-77
2022/07/14 08:32:42;;;;;;;1999.90;999.90;;;22.80;96.50;;;;;;5047946;28;20072;-77
2022/07/14 08:35:10;;;;;;;1999.90;999.90;;;22.80;95.60;;;;;;5045170;28;20045;-78
2022/07/14 08:37:36;;;;;;;1999.90;999.90;;;22.70;96.00;;;;;;5052855;28;20056;-77
2022/07/14 08:40:04;;;;;;;1999.90;999.90;;;22.50;94.50;;;;;;5039437;28;20052;-77
2022/07/14 08:42:31;;;;;;;1999.90;999.90;;;22.20;93.20;;;;;;5057128;28;20041;-77
2022/07/14 08:44:57;;;;;;;1999.90;999.90;;;22.10;94.40;;;;;;5082861;28;20071;-77
2022/07/14 08:47:22;;;;;;;1999.90;999.90;;;22.40;94.40;;;;;;5065526;28;20128;-77
2022/07/14 08:49:48;;;;;;;1999.90;999.90;;;22.40;94.70;;;;;;5063443;28;20048;-77
2022/07/14 08:52:17;;;;;;;1999.90;999.90;;;22.60;95.30;;;;;;5053400;28;20036;-77
2022/07/14 08:54:45;;;;;;;1999.90;999.90;;;22.80;95.20;;;;;;5051777;28;20073;-77
2022/07/14 08:57:11;;;;;;;1999.90;999.90;;;22.80;95.20;;;;;;5032244;28;20365;-77
2022/07/14 08:59:38;;;;;;;1999.90;999.90;;;22.50;94.20;;;;;;5054441;28;20058;-77
2022/07/14 09:02:04;;;;;;;1999.90;999.90;;;22.00;94.50;;;;;;5050250;28;20032;-77
2022/07/14 09:04:30;;;;;;;1999.90;999.90;;;21.60;95.10;;;;;;5070763;28;20044;-77
2022/07/14 09:06:57;;;;;;;1999.90;999.90;;;21.40;95.70;;;;;;5040539;28;20460;-77
2022/07/14 09:09:24;;;;;;;1999.90;999.90;;;21.70;95.00;;;;;;5040504;28;20032;-77
2022/07/14 09:12:04;;;;;;;1999.90;999.90;;;21.90;95.00;;;;;;5074045;28;20041;-77
2022/07/14 09:17:18;;;;;;;1999.90;999.90;;;22.50;95.70;;;;;;5058160;28;20041;-77
2022/07/14 09:20:11;;;;;;;1999.90;999.90;;;22.50;94.80;;;;;;5026176;28;20043;-77
2022/07/14 09:22:39;;;;;;;1999.90;999.90;;;22.20;94.70;;;;;;5058297;28;20043;-77
2022/07/14 09:25:15;;;;;;;1999.90;999.90;;;22.00;95.60;;;;;;5029463;28;20402;-76
2022/07/14 09:27:41;;;;;;;1999.90;999.90;;;21.80;96.50;;;;;;5048125;28;20047;-76
2022/07/14 09:30:10;;;;;;;1999.90;999.90;;;21.80;97.30;;;;;;5037251;28;20166;-76
2022/07/14 09:32:47;;;;;;;1999.90;999.90;;;21.80;96.40;;;;;;5072318;28;20148;-74
2022/07/14 09:35:19;;;;;;;1999.90;999.90;;;21.80;96.30;;;;;;5072376;28;20044;-77
2022/07/14 09:37:46;;;;;;;1999.90;999.90;;;21.80;96.30;;;;;;5081894;28;20047;-77
2022/07/14 09:40:31;;;;;;;1999.90;999.90;;;22.10;95.00;;;;;;5043994;28;20126;-77
2022/07/14 09:43:03;;;;;;;1999.90;999.90;;;22.20;96.10;;;;;;5032333;28;20516;-77
2022/07/14 09:45:29;;;;;;;1999.90;999.90;;;22.60;96.40;;;;;;5061109;28;20048;-77
2022/07/14 09:47:58;;;;;;;1999.90;999.90;;;23.10;94.60;;;;;;5058235;28;20421;-76
2022/07/14 09:50:41;;;;;;;1999.90;999.90;;;23.50;93.50;;;;;;5039947;28;20048;-77
2022/07/14 09:53:17;;;;;;;1999.90;999.90;;;23.20;92.90;;;;;;5095959;28;20093;-76
2022/07/14 09:55:49;;;;;;;1999.90;999.90;;;22.90;92.20;;;;;;5052455;28;20044;-78
2022/07/14 09:58:15;;;;;;;1999.90;999.90;;;22.50;92.70;;;;;;5060532;28;20081;-77
2022/07/14 10:00:43;;;;;;;1999.90;999.90;;;22.30;93.10;;;;;;5052879;28;20036;-77
2022/07/14 10:03:09;;;;;;;1999.90;999.90;;;22.20;93.60;;;;;;5076666;28;20774;-77
2022/07/14 10:05:35;;;;;;;1999.90;999.90;;;22.20;93.20;;;;;;5050054;28;20056;-78
2022/07/14 10:08:06;;;;;;;1999.90;999.90;;;22.10;94.60;;;;;;5047911;28;20036;-77
2022/07/14 10:10:34;;;;;;;1999.90;999.90;;;22.00;93.80;;;;;;5080177;28;20048;-78
2022/07/14 10:13:01;;;;;;;1999.90;999.90;;;22.10;94.10;;;;;;5060718;28;20115;-78
2022/07/14 10:15:27;;;;;;;1999.90;999.90;;;22.00;94.30;;;;;;5028584;28;20432;-77
2022/07/14 10:17:54;;;;;;;1999.90;999.90;;;22.10;95.70;;;;;;5046587;28;20037;-78
2022/07/14 10:20:20;;;;;;;1999.90;999.90;;;22.40;95.50;;;;;;5075576;28;20066;-77
2022/07/14 10:22:47;;;;;;;1999.90;999.90;;;22.40;94.50;;;;;;5078652;28;20096;-78
2022/07/14 10:25:13;;;;;;;1999.90;999.90;;;22.30;93.20;;;;;;5045576;28;20082;-77
2022/07/14 10:27:42;;;;;;;1999.90;999.90;;;22.20;93.10;;;;;;5040367;28;20119;-78
2022/07/14 10:30:10;;;;;;;1999.90;999.90;;;22.00;93.60;;;;;;5043795;28;20046;-77
2022/07/14 10:32:52;;;;;;;1999.90;999.90;;;22.00;93.80;;;;;;5027901;28;20098;-78
2022/07/14 10:35:48;;;;;;;1999.90;999.90;;;22.20;94.00;;;;;;5045392;28;20597;-78
2022/07/14 10:38:41;;;;;;;1999.90;999.90;;;22.50;93.80;;;;;;5062758;28;20045;-78
2022/07/14 10:41:19;;;;;;;1999.90;999.90;;;22.70;93.10;;;;;;5050948;28;20406;-78
2022/07/14 10:44:03;;;;;;;1999.90;999.90;;;22.70;92.60;;;;;;5062980;28;20478;-76
2022/07/14 10:46:45;;;;;;;1999.90;999.90;;;22.50;92.20;;;;;;5052375;28;20071;-76
2022/07/14 10:49:13;;;;;;;1999.90;999.90;;;22.10;91.10;;;;;;5057371;28;20054;-77
2022/07/14 10:51:49;;;;;;;1999.90;999.90;;;21.70;91.90;;;;;;5060605;28;20041;-76
2022/07/14 10:54:22;;;;;;;1999.90;999.90;;;21.50;93.20;;;;;;5029014;28;20041;-76
2022/07/14 10:56:48;;;;;;;;;;;21.20;94.40;;;;;;5048317;28;20124;-76
2022/07/14 10:59:25;;;;;;;1999.90;999.90;;;21.20;95.00;;;;;;5066914;28;19992;-76
2022/07/14 11:02:10;;;;;;;1999.90;999.90;;;21.10;93.20;;;;;;5074865;28;20041;-76
2022/07/14 11:07:34;;;;;;;1999.90;999.90;;;20.90;94.20;;;;;;5048157;28;20509;-75
2022/07/14 11:10:04;;;;;;;1999.90;999.90;;;21.00;94.00;;;;;;5056541;28;20044;-76
2022/07/14 11:12:30;;;;;;;1999.90;999.90;;;21.00;95.60;;;;;;5045605;28;20138;-75
2022/07/14 11:14:57;;;;;;;1999.90;999.90;;;21.00;94.90;;;;;;5054816;28;20109;-76
2022/07/14 11:17:36;;;;;;;1999.90;999.90;;;21.00;93.80;;;;;;5049041;28;20063;-75
2022/07/14 11:20:04;;;;;;;1999.90;999.90;;;20.90;93.90;;;;;;5051363;28;20060;-76
2022/07/14 11:22:29;;;;;;;1999.90;999.90;;;20.80;95.50;;;;;;5076049;28;20036;-76
2022/07/14 11:24:59;;;;;;;1999.90;999.90;;;20.80;95.10;;;;;;5061340;28;20048;-76
2022/07/14 11:27:40;;;;;;;1999.90;999.90;;;21.00;94.60;;;;;;5059433;28;20400;-76
2022/07/14 11:30:27;;;;;;;1999.90;999.90;;;21.20;94.10;;;;;;5033014;28;20514;-76
2022/07/14 11:33:05;;;;;;;1999.90;999.90;;;21.30;94.80;;;;;;5041229;28;20036;-76
2022/07/14 11:38:38;;;;;;;1999.90;999.90;;;21.70;93.70;;;;;;5032703;28;20049;-76
2022/07/14 11:41:09;;;;;;;1999.90;999.90;;;22.20;94.00;;;;;;5033563;28;20411;-76
2022/07/14 11:43:46;;;;;;;1999.90;999.90;;;22.50;94.90;;;;;;5039749;28;20080;-77
2022/07/14 11:46:17;;;;;;;1999.90;999.90;;;22.80;93.50;;;;;;5033869;28;20041;-76
2022/07/14 11:48:48;;;;;;;1999.90;999.90;;;23.00;92.00;;;;;;5046974;28;20044;-76
2022/07/14 11:51:21;;;;;;;1999.90;999.90;;;23.10;93.60;;;;;;5039555;28;20122;-76
2022/07/14 11:53:52;;;;;;;1999.90;999.90;;;23.40;91.10;;;;;;5062035;28;20302;-76
2022/07/14 11:56:23;;;;;;;1999.90;999.90;;;23.60;91.60;;;;;;5051926;28;20124;-76
2022/07/14 11:58:50;;;;;;;1999.90;999.90;;;23.50;90.50;;;;;;5054247;28;20563;-76
2022/07/14 12:01:16;;;;;;;1999.90;999.90;;;23.40;91.80;;;;;;5056178;28;20032;-76
2022/07/14 12:03:41;;;;;;;1999.90;999.90;;;23.40;91.40;;;;;;5052964;28;20040;-76
2022/07/14 12:06:07;;;;;;;1999.90;999.90;;;23.60;90.30;;;;;;5048877;28;20045;-76
2022/07/14 12:08:36;;;;;;;1999.90;999.90;;;23.40;90.20;;;;;;5055921;28;20144;-75
2022/07/14 12:11:08;;;;;;;1999.90;999.90;;;23.10;88.80;;;;;;5063713;28;20178;-76
2022/07/14 12:13:47;;;;;;;1999.90;999.90;;;22.80;90.50;;;;;;5035036;28;20097;-76
2022/07/14 12:16:13;;;;;;;1999.90;999.90;;;22.60;89.60;;;;;;5046069;28;20072;-76